首页
METAR-TAF:

METAR-TAF

机场 :

巴里, 意大利

纬度: 41-08N, 经度: 016-47E, 海拔: 34米

当前天气观测

该预报发布于29分钟前的21:20 UTC
风速5节,风向西
温度 11°C
湿度 82%
气压 1018 hPa
能见度10公里或以上
1500米以下无云,无积雨云

METAR: LIBD 262120Z 27005KT CAVOK 11/08 Q1018

时间: 22:49 (21:49 UTC)

预报

该预报发布于4小时和49分钟前的17:00 UTC
预报有效从26日的 18点(UTC)到 27日的 18点(UTC)
风速8节,风向
能见度10公里或以上
散云层高于4000英尺
短暂存在
从 26日的 18点(UTC)到 26日的 21点(UTC)
短暂存在
从 27日的 02点(UTC)到 27日的 07点(UTC)
能見度: 4000
轻雾

TAF: LIBD 261700Z 2618/2718 19008KT 9999 SCT040 TEMPO 2618/2621 RA TEMPO 2702/2707 4000 BR

超过4000个机场的气象观测和天气预报(METAR&TAF报告)。

可查询的气象台以黄色和红色小点在地图上表示。

将鼠标移到小点上方,可查看气象台名称。

然后点击查看天气观测和预报。

如需切换地图:点击带黑十字的绿色按钮放大地图;点击带横线的绿色按钮缩小地图;或者点击绿色箭头查看邻近地区的地图。


METAR-TAF: